Time;durP1;ratioP1;P1;durP2;ratioP2;P2;SDS_P1;SDS_P2;PMS_P1;PMS_P2;Temp;Humidity;BMP_temperature;BMP_pressure;BME280_temperature;BME280_humidity;BME280_pressure;Samples;Min_cycle;Max_cycle;Signal;HPM_P1;HPM_P2
2024/04/01 00:00:12;;;;;;;;;;;;;;;9.98;90.93;99407.27;106811;1275;22451;-52
2024/04/01 00:02:39;;;;;;;;;;;;;;;9.93;91.00;99404.60;106858;1275;24385;-52
2024/04/01 00:05:08;;;;;;;;;;;;;;;9.89;90.89;99403.69;106786;1275;25879;-49
2024/04/01 00:07:34;;;;;;;;;;;;;;;9.85;90.75;99406.09;106765;1275;22460;-52
2024/04/01 00:10:01;;;;;;;;;;;;;;;9.81;90.73;99406.36;106780;1275;25392;-49
2024/04/01 00:12:28;;;;;;;;;;;;;;;9.78;90.87;99405.60;106785;1275;25210;-49
2024/04/01 00:14:57;;;;;;;;;;;;;;;9.76;90.96;99409.80;106774;1275;25390;-50
2024/04/01 00:17:24;;;;;;;;;;;;;;;9.73;90.96;99411.27;106802;1275;22586;-51
2024/04/01 00:19:51;;;;;;;;;;;;;;;9.70;90.89;99414.27;106856;1268;22622;-48
2024/04/01 00:22:17;;;;;;;;;;;;;;;9.67;90.68;99410.81;106997;1275;22509;-49
2024/04/01 00:24:44;;;;;;;;;;;;;;;9.63;90.77;99405.80;106779;1275;24140;-48
2024/04/01 00:27:11;;;;;;;;;;;;;;;9.60;90.76;99400.09;106761;1275;23086;-49
2024/04/01 00:29:37;;;;;;;;;;;;;;;9.56;90.80;99400.92;106817;1275;22502;-48
2024/04/01 00:32:04;;;;;;;;;;;;;;;9.51;90.70;99392.76;106920;1273;22428;-49
2024/04/01 00:34:31;;;;;;;;;;;;;;;9.48;90.84;99389.30;106948;1275;24257;-52
2024/04/01 00:36:58;;;;;;;;;;;;;;;9.46;90.84;99390.34;106850;1275;24633;-52
2024/04/01 00:39:25;;;;;;;;;;;;;;;9.43;90.98;99385.46;106860;1275;22574;-50
2024/04/01 00:41:52;;;;;;;;;;;;;;;9.39;90.89;99374.95;106900;1275;25189;-49
2024/04/01 00:44:18;;;;;;;;;;;;;;;9.36;90.88;99372.25;106912;1275;25340;-49
2024/04/01 00:46:45;;;;;;;;;;;;;;;9.32;90.93;99378.19;106801;1275;25216;-51
2024/04/01 00:49:11;;;;;;;;;;;;;;;9.28;91.02;99384.30;106925;1269;22499;-50
2024/04/01 00:51:42;;;;;;;;;;;;;;;9.24;91.23;99380.68;107073;1275;22587;-50
2024/04/01 00:54:08;;;;;;;;;;;;;;;9.22;91.49;99375.37;106795;1275;25895;-51
2024/04/01 00:56:35;;;;;;;;;;;;;;;9.21;91.58;99364.35;106805;1275;24185;-49
2024/04/01 00:59:01;;;;;;;;;;;;;;;9.20;91.58;99364.20;106790;1275;22493;-51
2024/04/01 01:01:28;;;;;;;;;;;;;;;9.21;91.76;99360.67;106790;1275;22586;-49
2024/04/01 01:03:54;;;;;;;;;;;;;;;9.18;91.71;99358.21;106707;1275;22430;-49
2024/04/01 01:06:21;;;;;;;;;;;;;;;9.15;91.67;99356.98;106925;1275;22621;-49
2024/04/01 01:08:48;;;;;;;;;;;;;;;9.13;91.58;99346.27;106988;1275;25863;-49
2024/04/01 01:11:14;;;;;;;;;;;;;;;9.10;91.63;99343.83;106817;1275;25835;-49
2024/04/01 01:13:41;;;;;;;;;;;;;;;9.08;91.62;99337.30;106806;1275;22966;-50
2024/04/01 01:16:07;;;;;;;;;;;;;;;9.06;91.57;99337.11;106905;1275;22529;-52
2024/04/01 01:18:34;;;;;;;;;;;;;;;9.04;91.81;99334.77;106915;1275;25269;-49
2024/04/01 01:21:00;;;;;;;;;;;;;;;9.03;91.74;99336.27;106812;1273;24176;-51
2024/04/01 01:23:27;;;;;;;;;;;;;;;9.02;91.79;99336.66;106791;1275;22625;-51
2024/04/01 01:25:53;;;;;;;;;;;;;;;9.01;91.77;99335.52;106783;1275;22673;-52
2024/04/01 01:28:20;;;;;;;;;;;;;;;8.98;91.73;99336.59;106864;1275;24156;-52
2024/04/01 01:30:47;;;;;;;;;;;;;;;8.95;91.84;99340.54;106910;1256;25223;-51
2024/04/01 01:33:13;;;;;;;;;;;;;;;8.92;92.17;99344.98;106803;1275;22451;-51
2024/04/01 01:35:44;;;;;;;;;;;;;;;8.92;92.42;99351.89;106920;1275;25346;-52
2024/04/01 01:38:12;;;;;;;;;;;;;;;8.90;92.46;99348.27;106994;1275;24282;-51
2024/04/01 01:40:39;;;;;;;;;;;;;;;8.90;92.45;99348.66;106878;1275;25218;-51
2024/04/01 01:43:06;;;;;;;;;;;;;;;8.89;92.41;99353.89;106822;1275;22665;-50
2024/04/01 01:45:32;;;;;;;;;;;;;;;8.86;92.49;99358.31;106828;1275;24161;-51
2024/04/01 01:47:59;;;;;;;;;;;;;;;8.84;92.67;99361.77;106802;1275;22646;-52
2024/04/01 01:50:25;;;;;;;;;;;;;;;8.82;92.76;99364.54;106796;1275;25431;-52
2024/04/01 01:52:56;;;;;;;;;;;;;;;8.80;92.86;99361.39;106904;1275;24192;-52
2024/04/01 01:55:22;;;;;;;;;;;;;;;8.78;92.82;99359.38;106796;1275;22616;-50
2024/04/01 01:57:49;;;;;;;;;;;;;;;8.77;92.89;99363.14;106795;1275;25356;-48
2024/04/01 02:00:15;;;;;;;;;;;;;;;8.77;92.88;99364.22;106786;1275;22754;-50
2024/04/01 02:02:42;;;;;;;;;;;;;;;8.76;93.12;99356.52;106815;1275;25506;-52
2024/04/01 02:05:09;;;;;;;;;;;;;;;8.76;93.07;99358.30;106626;1275;301223;-50
2024/04/01 02:07:36;;;;;;;;;;;;;;;8.75;93.22;99357.13;106957;1275;22505;-51
2024/04/01 02:10:03;;;;;;;;;;;;;;;8.74;93.19;99358.45;106842;1275;23154;-48
2024/04/01 02:12:29;;;;;;;;;;;;;;;8.72;93.21;99362.13;106791;1275;22641;-50
2024/04/01 02:14:56;;;;;;;;;;;;;;;8.70;93.23;99363.52;106813;1275;24174;-48
2024/04/01 02:17:22;;;;;;;;;;;;;;;8.68;93.22;99366.42;106801;1275;22470;-49
2024/04/01 02:19:49;;;;;;;;;;;;;;;8.69;93.26;99373.63;106802;1275;25266;-49
2024/04/01 02:22:19;;;;;;;;;;;;;;;8.68;93.49;99371.59;106813;1275;22512;-49
2024/04/01 02:24:45;;;;;;;;;;;;;;;8.68;93.70;99372.65;106925;1275;24230;-51
2024/04/01 02:27:12;;;;;;;;;;;;;;;8.67;93.68;99369.16;107038;1275;22885;-48
2024/04/01 02:29:38;;;;;;;;;;;;;;;8.67;93.71;99374.67;106910;1275;24236;-50
2024/04/01 02:32:06;;;;;;;;;;;;;;;8.65;93.72;99371.92;106933;1275;22588;-48
2024/04/01 02:34:33;;;;;;;;;;;;;;;8.63;93.61;99370.80;106909;1275;25155;-49
2024/04/01 02:36:59;;;;;;;;;;;;;;;8.63;93.71;99366.45;106770;1275;24178;-51
2024/04/01 02:39:26;;;;;;;;;;;;;;;8.62;93.89;99364.73;106805;1275;24155;-51
2024/04/01 02:41:52;;;;;;;;;;;;;;;8.62;93.95;99366.33;106836;1275;22649;-49
2024/04/01 02:44:22;;;;;;;;;;;;;;;8.62;93.87;99363.73;106773;1275;22544;-49
2024/04/01 02:46:48;;;;;;;;;;;;;;;8.61;93.87;99361.48;106919;1275;22920;-49
2024/04/01 02:49:17;;;;;;;;;;;;;;;8.61;93.76;99361.86;106831;1275;25843;-51
2024/04/01 02:51:44;;;;;;;;;;;;;;;8.59;93.84;99361.64;106821;1275;22486;-50
2024/04/01 02:54:10;;;;;;;;;;;;;;;8.57;93.72;99365.80;106817;1275;25285;-49
2024/04/01 02:56:37;;;;;;;;;;;;;;;8.57;93.72;99364.79;106810;1275;25345;-48
2024/04/01 02:59:04;;;;;;;;;;;;;;;8.56;93.91;99364.86;106773;1275;23102;-50
2024/04/01 03:01:30;;;;;;;;;;;;;;;8.55;93.87;99364.23;106884;1275;22673;-48
2024/04/01 03:04:00;;;;;;;;;;;;;;;8.53;93.86;99363.81;106767;1275;24136;-52
2024/04/01 03:06:28;;;;;;;;;;;;;;;8.53;93.80;99363.11;106980;1275;24335;-53
2024/04/01 03:08:54;;;;;;;;;;;;;;;8.51;93.81;99360.63;107131;1275;22891;-53
2024/04/01 03:11:21;;;;;;;;;;;;;;;8.50;93.74;99355.98;106924;1275;25172;-53
2024/04/01 03:13:48;;;;;;;;;;;;;;;8.47;93.69;99350.54;106979;1275;24216;-51
2024/04/01 03:16:15;;;;;;;;;;;;;;;8.45;93.69;99349.99;106961;1275;24108;-51
2024/04/01 03:18:43;;;;;;;;;;;;;;;8.43;93.83;99349.92;106781;1275;25186;-49
2024/04/01 03:21:10;;;;;;;;;;;;;;;8.41;93.95;99347.76;106818;1275;22484;-49
2024/04/01 03:23:37;;;;;;;;;;;;;;;8.41;93.90;99345.98;106798;1275;25216;-52
2024/04/01 03:26:03;;;;;;;;;;;;;;;8.41;93.95;99344.09;106733;1275;22515;-49
2024/04/01 03:28:30;;;;;;;;;;;;;;;8.41;93.87;99340.22;106843;1275;22491;-52
2024/04/01 03:30:56;;;;;;;;;;;;;;;8.39;93.71;99344.21;106795;1275;23975;-52
2024/04/01 03:33:23;;;;;;;;;;;;;;;8.35;93.81;99346.90;106818;1275;22464;-53
2024/04/01 03:35:56;;;;;;;;;;;;;;;8.33;93.77;99356.39;106846;1275;25346;-53
2024/04/01 03:38:22;;;;;;;;;;;;;;;8.31;93.84;99361.14;106869;1275;25281;-52
2024/04/01 03:40:49;;;;;;;;;;;;;;;8.30;93.83;99362.25;106830;1275;22631;-50
2024/04/01 03:43:15;;;;;;;;;;;;;;;8.29;93.95;99351.60;106928;1275;22517;-49
2024/04/01 03:45:42;;;;;;;;;;;;;;;8.28;93.89;99346.56;106877;1275;22632;-49
2024/04/01 03:48:11;;;;;;;;;;;;;;;8.28;94.12;99340.02;106817;1275;24252;-51
2024/04/01 03:50:42;;;;;;;;;;;;;;;8.28;94.17;99327.73;106898;1275;22554;-48
2024/04/01 03:53:08;;;;;;;;;;;;;;;8.27;93.98;99322.54;106838;1275;22441;-49
2024/04/01 03:55:35;;;;;;;;;;;;;;;8.25;93.99;99324.06;106822;1275;23862;-49
2024/04/01 03:58:02;;;;;;;;;;;;;;;8.23;94.11;99323.85;106853;1275;22561;-48
2024/04/01 04:00:28;;;;;;;;;;;;;;;8.22;94.21;99327.25;106940;1258;22738;-49
2024/04/01 04:02:55;;;;;;;;;;;;;;;8.22;94.20;99329.00;106921;1275;22505;-51
2024/04/01 04:05:22;;;;;;;;;;;;;;;8.23;94.11;99332.34;106836;1275;22445;-51
2024/04/01 04:07:48;;;;;;;;;;;;;;;8.21;94.34;99329.23;106969;1275;22994;-50
2024/04/01 04:10:15;;;;;;;;;;;;;;;8.21;94.35;99332.40;106955;1275;25289;-49
2024/04/01 04:12:41;;;;;;;;;;;;;;;8.20;94.46;99328.64;106824;1275;25252;-51
2024/04/01 04:15:09;;;;;;;;;;;;;;;8.19;94.49;99330.67;106878;1275;22432;-48
2024/04/01 04:17:35;;;;;;;;;;;;;;;8.17;94.63;99334.65;106818;1275;22552;-49
2024/04/01 04:20:02;;;;;;;;;;;;;;;8.17;94.68;99338.33;106802;1275;22666;-49
2024/04/01 04:22:32;;;;;;;;;;;;;;;8.17;94.78;99343.44;106889;1275;24366;-49
2024/04/01 04:25:02;;;;;;;;;;;;;;;8.17;94.64;99340.79;106777;1275;22547;-48
2024/04/01 04:27:28;;;;;;;;;;;;;;;8.18;94.73;99340.23;106808;1275;22463;-51
2024/04/01 04:29:57;;;;;;;;;;;;;;;8.18;94.87;99341.59;106818;1275;22546;-51
2024/04/01 04:32:27;;;;;;;;;;;;;;;8.18;94.81;99343.21;106801;1275;24246;-51
2024/04/01 04:34:53;;;;;;;;;;;;;;;8.17;94.74;99346.27;106798;1275;22820;-50
2024/04/01 04:37:20;;;;;;;;;;;;;;;8.17;94.77;99349.28;106806;1271;25088;-48
2024/04/01 04:39:46;;;;;;;;;;;;;;;8.16;94.80;99350.94;106817;1275;25289;-51
2024/04/01 04:42:13;;;;;;;;;;;;;;;8.15;94.90;99351.52;106790;1275;22499;-51
2024/04/01 04:44:41;;;;;;;;;;;;;;;8.16;94.73;99352.86;106786;1275;22712;-52
2024/04/01 04:47:08;;;;;;;;;;;;;;;8.16;94.73;99363.61;106795;1275;22504;-52
2024/04/01 04:49:34;;;;;;;;;;;;;;;8.16;94.93;99367.64;106857;1275;24205;-48
2024/04/01 04:52:01;;;;;;;;;;;;;;;8.17;95.08;99363.52;106890;1275;24420;-48
2024/04/01 04:54:29;;;;;;;;;;;;;;;8.17;94.92;99358.24;106844;1275;25462;-49
2024/04/01 04:56:55;;;;;;;;;;;;;;;8.15;94.90;99356.22;106789;1275;22528;-49
2024/04/01 04:59:22;;;;;;;;;;;;;;;8.15;94.90;99352.91;106780;1275;22491;-52
2024/04/01 05:01:51;;;;;;;;;;;;;;;8.14;95.07;99350.53;106818;1275;24114;-50
2024/04/01 05:04:18;;;;;;;;;;;;;;;8.14;95.21;99344.73;106827;1275;24166;-49
2024/04/01 05:06:45;;;;;;;;;;;;;;;8.15;95.42;99344.48;106878;1275;24182;-48
2024/04/01 05:09:11;;;;;;;;;;;;;;;8.17;95.65;99348.04;107030;1275;22532;-51
2024/04/01 05:11:38;;;;;;;;;;;;;;;8.18;95.66;99349.36;106828;1275;25336;-48
2024/04/01 05:14:04;;;;;;;;;;;;;;;8.20;95.68;99349.95;106802;1275;24269;-49
2024/04/01 05:16:31;;;;;;;;;;;;;;;8.20;95.72;99352.79;106769;1275;25372;-49
2024/04/01 05:18:57;;;;;;;;;;;;;;;8.19;95.51;99356.70;106960;1275;22453;-49
2024/04/01 05:21:24;;;;;;;;;;;;;;;8.18;95.62;99357.83;106924;1275;23938;-49
2024/04/01 05:23:52;;;;;;;;;;;;;;;8.18;95.59;99358.19;106789;1275;22648;-49
2024/04/01 05:26:19;;;;;;;;;;;;;;;8.18;95.71;99361.55;106822;1275;24261;-46
2024/04/01 05:28:49;;;;;;;;;;;;;;;8.20;95.95;99359.25;106880;1275;25288;-45
2024/04/01 05:31:15;;;;;;;;;;;;;;;8.21;95.97;99356.90;106789;1275;24178;-45
2024/04/01 05:33:42;;;;;;;;;;;;;;;8.22;96.01;99355.95;106799;1275;22584;-44
2024/04/01 05:36:08;;;;;;;;;;;;;;;8.23;96.08;99358.70;106776;1275;22503;-47
2024/04/01 05:38:35;;;;;;;;;;;;;;;8.24;96.25;99357.09;106805;1271;22512;-45
2024/04/01 05:41:01;;;;;;;;;;;;;;;8.24;96.20;99358.61;106903;1275;22545;-45
2024/04/01 05:43:30;;;;;;;;;;;;;;;8.25;96.26;99359.47;106916;1275;22435;-46
2024/04/01 05:45:57;;;;;;;;;;;;;;;8.26;96.39;99357.60;106929;1275;22647;-44
2024/04/01 05:48:24;;;;;;;;;;;;;;;8.29;96.39;99357.77;106918;1275;22554;-44
2024/04/01 05:50:51;;;;;;;;;;;;;;;8.32;96.30;99358.44;106904;1275;22432;-44
2024/04/01 05:53:18;;;;;;;;;;;;;;;8.34;96.39;99356.13;106930;1273;24187;-44
2024/04/01 05:55:45;;;;;;;;;;;;;;;8.36;96.53;99361.08;106823;1275;25162;-44
2024/04/01 05:58:11;;;;;;;;;;;;;;;8.37;96.61;99358.02;106824;1271;24267;-45
2024/04/01 06:00:38;;;;;;;;;;;;;;;8.38;96.56;99360.41;106834;1275;22682;-45
2024/04/01 06:03:05;;;;;;;;;;;;;;;8.40;96.69;99360.00;106832;1275;22492;-44
2024/04/01 06:05:32;;;;;;;;;;;;;;;8.42;97.13;99360.21;106848;1275;22928;-45
2024/04/01 06:07:59;;;;;;;;;;;;;;;8.44;97.03;99358.33;106817;1275;25842;-46
2024/04/01 06:10:26;;;;;;;;;;;;;;;8.46;97.01;99358.91;106786;1275;25349;-45
2024/04/01 06:12:54;;;;;;;;;;;;;;;8.48;96.98;99363.51;106786;1272;22675;-45
2024/04/01 06:15:21;;;;;;;;;;;;;;;8.50;96.99;99363.02;106840;1275;25828;-44
2024/04/01 06:17:48;;;;;;;;;;;;;;;8.51;97.08;99362.05;106776;1275;22808;-44
2024/04/01 06:20:15;;;;;;;;;;;;;;;8.51;97.24;99363.58;106819;1275;22637;-45
2024/04/01 06:22:42;;;;;;;;;;;;;;;8.52;97.16;99363.02;106978;1275;25313;-46
2024/04/01 06:25:08;;;;;;;;;;;;;;;8.53;97.30;99360.66;107004;1275;22790;-47
2024/04/01 06:27:35;;;;;;;;;;;;;;;8.54;97.29;99363.08;106896;1275;25278;-48
2024/04/01 06:30:02;;;;;;;;;;;;;;;8.54;97.33;99361.29;106899;1275;24312;-53
2024/04/01 06:32:28;;;;;;;;;;;;;;;8.57;97.52;99363.38;106812;1273;25460;-51
2024/04/01 06:34:55;;;;;;;;;;;;;;;8.60;97.51;99367.52;106784;1275;25379;-52
2024/04/01 06:37:21;;;;;;;;;;;;;;;8.62;97.51;99371.23;106767;1274;22666;-50
2024/04/01 06:39:52;;;;;;;;;;;;;;;8.65;97.71;99371.59;107060;1275;22510;-51
2024/04/01 06:42:18;;;;;;;;;;;;;;;8.68;97.72;99377.23;106859;1275;24172;-50
2024/04/01 06:44:48;;;;;;;;;;;;;;;8.70;97.86;99379.52;106890;1275;24360;-52
2024/04/01 06:47:15;;;;;;;;;;;;;;;8.71;97.83;99383.17;106815;1275;24309;-49
2024/04/01 06:49:41;;;;;;;;;;;;;;;8.71;97.78;99388.27;106750;1275;25337;-51
2024/04/01 06:52:08;;;;;;;;;;;;;;;8.72;98.21;99391.20;106840;1275;22485;-50
2024/04/01 06:54:34;;;;;;;;;;;;;;;8.75;98.34;99391.48;107077;1275;22685;-49
2024/04/01 06:57:02;;;;;;;;;;;;;;;8.79;98.48;99395.21;106942;1275;24031;-50
2024/04/01 06:59:29;;;;;;;;;;;;;;;8.84;98.57;99401.92;106925;1275;23872;-52
2024/04/01 07:01:55;;;;;;;;;;;;;;;8.89;98.79;99403.52;106938;1275;24253;-53
2024/04/01 07:04:22;;;;;;;;;;;;;;;8.93;98.85;99406.41;107016;1275;22681;-53
2024/04/01 07:06:48;;;;;;;;;;;;;;;8.96;98.89;99409.66;106899;1275;24154;-52
2024/04/01 07:09:15;;;;;;;;;;;;;;;8.98;98.71;99413.41;106961;1275;22437;-49
2024/04/01 07:11:42;;;;;;;;;;;;;;;9.00;98.84;99417.86;106882;1275;22662;-51
2024/04/01 07:14:08;;;;;;;;;;;;;;;9.02;99.05;99413.30;106813;1275;24136;-52
2024/04/01 07:16:35;;;;;;;;;;;;;;;9.06;99.31;99413.71;106792;1275;22650;-49
2024/04/01 07:19:02;;;;;;;;;;;;;;;9.10;99.34;99419.09;106784;1275;24165;-51
2024/04/01 07:21:29;;;;;;;;;;;;;;;9.13;99.36;99426.08;106799;1275;22687;-48
2024/04/01 07:23:55;;;;;;;;;;;;;;;9.18;99.44;99423.27;106906;1275;22602;-51
2024/04/01 07:26:22;;;;;;;;;;;;;;;9.22;99.32;99426.81;106763;1275;22430;-48
2024/04/01 07:28:52;;;;;;;;;;;;;;;9.26;99.51;99431.12;106790;1275;24392;-49
2024/04/01 07:31:18;;;;;;;;;;;;;;;9.29;99.40;99429.52;106770;1275;23080;-49
2024/04/01 07:33:45;;;;;;;;;;;;;;;9.31;99.53;99433.05;106796;1275;25886;-51
2024/04/01 07:36:12;;;;;;;;;;;;;;;9.34;99.52;99439.19;106925;1275;25346;-49
2024/04/01 07:38:38;;;;;;;;;;;;;;;9.36;99.57;99432.32;106965;1275;25274;-48
2024/04/01 07:41:07;;;;;;;;;;;;;;;9.39;99.58;99438.44;106756;1275;25337;-50
2024/04/01 07:43:34;;;;;;;;;;;;;;;9.41;99.56;99438.80;106826;1275;25444;-52
2024/04/01 07:46:01;;;;;;;;;;;;;;;9.44;99.60;99443.70;106809;1275;22506;-49
2024/04/01 07:48:27;;;;;;;;;;;;;;;9.48;99.62;99444.17;106825;1275;22672;-50
2024/04/01 07:51:00;;;;;;;;;;;;;;;9.50;99.72;99445.58;106761;1275;23795;-52
2024/04/01 07:53:26;;;;;;;;;;;;;;;9.54;99.87;99450.39;106850;1275;22774;-54
2024/04/01 07:55:53;;;;;;;;;;;;;;;9.57;99.84;99454.21;106935;1275;22565;-52
2024/04/01 07:58:19;;;;;;;;;;;;;;;9.60;99.72;99458.77;106892;1275;25385;-47
2024/04/01 08:00:46;;;;;;;;;;;;;;;9.61;99.47;99465.77;106912;1275;22637;-49
2024/04/01 08:03:13;;;;;;;;;;;;;;;9.63;99.46;99467.23;107029;1275;22512;-45
2024/04/01 08:05:40;;;;;;;;;;;;;;;9.64;99.47;99469.95;106830;1275;25393;-44
2024/04/01 08:08:07;;;;;;;;;;;;;;;9.66;99.44;99469.41;106796;1275;25252;-48
2024/04/01 08:10:33;;;;;;;;;;;;;;;9.70;99.51;99468.60;106801;1275;24143;-49
2024/04/01 08:13:00;;;;;;;;;;;;;;;9.75;99.53;99470.77;106871;1275;22497;-50
2024/04/01 08:15:27;;;;;;;;;;;;;;;9.77;99.39;99473.89;106940;1275;25214;-49
2024/04/01 08:17:54;;;;;;;;;;;;;;;9.78;99.22;99476.30;106826;1275;22602;-50
2024/04/01 08:20:21;;;;;;;;;;;;;;;9.79;99.28;99477.08;106793;1275;22506;-48
2024/04/01 08:22:50;;;;;;;;;;;;;;;9.81;99.16;99481.20;107016;1275;25378;-48
2024/04/01 08:25:16;;;;;;;;;;;;;;;9.83;99.16;99483.71;106961;1271;25281;-47
2024/04/01 08:27:43;;;;;;;;;;;;;;;9.85;99.27;99486.20;106994;1275;22495;-50
2024/04/01 08:30:10;;;;;;;;;;;;;;;9.88;99.31;99487.02;106927;1275;22509;-51
2024/04/01 08:32:36;;;;;;;;;;;;;;;9.91;99.34;99498.78;106958;1275;23944;-51
2024/04/01 08:35:03;;;;;;;;;;;;;;;9.95;99.29;99504.68;107026;1275;23778;-51
2024/04/01 08:37:33;;;;;;;;;;;;;;;9.97;99.10;99508.09;107052;1275;22451;-45
2024/04/01 08:39:59;;;;;;;;;;;;;;;9.97;99.12;99512.67;106909;1275;22493;-44
2024/04/01 08:42:26;;;;;;;;;;;;;;;9.98;99.15;99515.91;106897;1275;25310;-46
2024/04/01 08:44:52;;;;;;;;;;;;;;;10.00;99.05;99516.66;106895;1275;22701;-45
2024/04/01 08:47:19;;;;;;;;;;;;;;;10.02;98.98;99520.23;106786;1275;22634;-46
2024/04/01 08:50:05;;;;;;;;;;;;;;;10.03;99.05;99516.63;106797;1275;22619;-45
2024/04/01 08:52:36;;;;;;;;;;;;;;;10.05;98.85;99521.77;107006;1275;22499;-44
2024/04/01 08:55:03;;;;;;;;;;;;;;;10.07;98.89;99529.36;106886;1275;24206;-46
2024/04/01 08:57:29;;;;;;;;;;;;;;;10.09;98.97;99531.55;106804;1275;22514;-45
2024/04/01 08:59:56;;;;;;;;;;;;;;;10.10;98.65;99539.75;106757;1275;22555;-46
2024/04/01 09:02:23;;;;;;;;;;;;;;;10.12;98.66;99545.96;106848;1275;22470;-47
2024/04/01 09:04:51;;;;;;;;;;;;;;;10.12;98.67;99551.60;107062;1275;22698;-46
2024/04/01 09:07:18;;;;;;;;;;;;;;;10.14;98.76;99558.65;107034;1275;25329;-45
2024/04/01 09:09:44;;;;;;;;;;;;;;;10.15;98.69;99563.89;106843;1275;22504;-46
2024/04/01 09:12:11;;;;;;;;;;;;;;;10.15;98.55;99569.70;106827;1275;25196;-45
2024/04/01 09:14:37;;;;;;;;;;;;;;;10.16;98.49;99578.30;106792;1275;22634;-45
2024/04/01 09:17:04;;;;;;;;;;;;;;;10.16;98.50;99579.01;106778;1274;22666;-46
2024/04/01 09:19:31;;;;;;;;;;;;;;;10.19;98.68;99576.50;106808;1275;22692;-44
2024/04/01 09:22:01;;;;;;;;;;;;;;;10.21;98.54;99577.75;106836;1275;22543;-44
2024/04/01 09:24:28;;;;;;;;;;;;;;;10.25;98.83;99586.83;106891;1275;22661;-47
2024/04/01 09:26:55;;;;;;;;;;;;;;;10.28;98.83;99594.70;106935;1275;24136;-46
2024/04/01 09:29:21;;;;;;;;;;;;;;;10.29;98.62;99584.05;106907;1275;23018;-47
2024/04/01 09:31:49;;;;;;;;;;;;;;;10.29;98.44;99577.02;106783;1275;22621;-45
2024/04/01 09:34:20;;;;;;;;;;;;;;;10.30;98.33;99578.72;106909;1275;22702;-45
2024/04/01 09:36:49;;;;;;;;;;;;;;;10.32;98.49;99579.80;106912;1275;24294;-47
2024/04/01 09:39:16;;;;;;;;;;;;;;;10.35;98.63;99572.48;106778;1275;24238;-48
2024/04/01 09:41:42;;;;;;;;;;;;;;;10.40;98.66;99563.10;106803;1275;25173;-48
2024/04/01 09:44:10;;;;;;;;;;;;;;;10.42;98.26;99556.20;106857;1275;22521;-48
2024/04/01 09:46:40;;;;;;;;;;;;;;;10.45;98.11;99555.86;106954;1275;22591;-48
2024/04/01 09:49:07;;;;;;;;;;;;;;;10.48;98.24;99564.45;106897;1275;22506;-47
2024/04/01 09:51:34;;;;;;;;;;;;;;;10.51;97.90;99574.34;107011;1275;22446;-45
2024/04/01 09:54:00;;;;;;;;;;;;;;;10.54;98.15;99579.67;106927;1275;22524;-53
2024/04/01 09:56:42;;;;;;;;;;;;;;;10.58;98.03;99586.07;106851;1275;22495;-52
2024/04/01 09:59:23;;;;;;;;;;;;;;;10.62;98.04;99591.14;106924;1275;22817;-51
2024/04/01 10:02:08;;;;;;;;;;;;;;;10.67;97.85;99591.83;106835;1275;25368;-53
2024/04/01 10:04:41;;;;;;;;;;;;;;;10.71;97.77;99596.27;106789;1275;22669;-53
2024/04/01 10:07:23;;;;;;;;;;;;;;;10.73;97.52;99600.31;106858;1275;22662;-51
2024/04/01 10:09:52;;;;;;;;;;;;;;;10.75;97.45;99597.88;106823;1275;22488;-49
2024/04/01 10:12:28;;;;;;;;;;;;;;;10.76;97.12;99595.33;106744;1275;24174;-53
2024/04/01 10:14:54;;;;;;;;;;;;;;;10.79;97.12;99592.81;106776;1275;22530;-50
2024/04/01 10:17:27;;;;;;;;;;;;;;;10.81;97.40;99588.73;106813;1275;22498;-50
2024/04/01 10:19:56;;;;;;;;;;;;;;;10.86;97.30;99586.63;106872;1271;22867;-50
2024/04/01 10:22:23;;;;;;;;;;;;;;;10.90;97.38;99592.67;106824;1275;22632;-52
2024/04/01 10:24:52;;;;;;;;;;;;;;;10.94;97.34;99596.46;106820;1275;22603;-51
2024/04/01 10:27:19;;;;;;;;;;;;;;;10.98;97.04;99601.25;106823;1275;22490;-53
2024/04/01 10:30:04;;;;;;;;;;;;;;;11.03;97.04;99603.29;106792;1275;24141;-52
2024/04/01 10:32:45;;;;;;;;;;;;;;;11.11;97.21;99602.68;106886;1275;23041;-49
2024/04/01 10:35:18;;;;;;;;;;;;;;;11.18;96.95;99603.77;107106;1275;25211;-50
2024/04/01 10:37:59;;;;;;;;;;;;;;;11.20;96.44;99607.80;106898;1275;25395;-52
2024/04/01 10:40:28;;;;;;;;;;;;;;;11.22;95.67;99609.61;106859;1275;22433;-52
2024/04/01 10:42:55;;;;;;;;;;;;;;;11.25;95.39;99608.69;106883;1275;22925;-52
2024/04/01 10:45:34;;;;;;;;;;;;;;;11.28;95.42;99610.66;106844;1275;25278;-52
2024/04/01 10:48:16;;;;;;;;;;;;;;;11.36;95.23;99613.64;106765;1275;25404;-51
2024/04/01 10:50:45;;;;;;;;;;;;;;;11.42;95.06;99606.23;106778;1275;25272;-52
2024/04/01 10:53:23;;;;;;;;;;;;;;;11.48;94.56;99601.74;106755;1275;22721;-51
2024/04/01 10:56:02;;;;;;;;;;;;;;;11.53;94.40;99600.61;106804;1275;22806;-51
2024/04/01 10:58:29;;;;;;;;;;;;;;;11.59;94.10;99599.98;106815;1275;24258;-54
2024/04/01 11:01:14;;;;;;;;;;;;;;;11.60;93.49;99598.84;106802;1275;23877;-52
2024/04/01 11:03:44;;;;;;;;;;;;;;;11.61;93.22;99595.76;106787;1275;25243;-53
2024/04/01 11:06:22;;;;;;;;;;;;;;;11.63;93.18;99594.84;106751;1275;22445;-52
2024/04/01 11:08:57;;;;;;;;;;;;;;;11.65;92.61;99598.03;106800;1275;25337;-50
2024/04/01 11:11:27;;;;;;;;;;;;;;;11.65;92.14;99606.17;106789;1275;22446;-53
2024/04/01 11:14:01;;;;;;;;;;;;;;;11.68;92.17;99609.69;106823;1275;24386;-48
2024/04/01 11:16:28;;;;;;;;;;;;;;;11.72;92.19;99617.63;106789;1275;25212;-45
2024/04/01 11:18:59;;;;;;;;;;;;;;;11.77;92.00;99621.52;106842;1275;25378;-48
2024/04/01 11:21:29;;;;;;;;;;;;;;;11.82;91.71;99625.21;106824;1275;22603;-47
2024/04/01 11:24:07;;;;;;;;;;;;;;;11.83;90.94;99627.78;106791;1275;22502;-45
2024/04/01 11:26:37;;;;;;;;;;;;;;;11.84;90.77;99628.95;106807;1275;22502;-45
2024/04/01 11:29:07;;;;;;;;;;;;;;;11.83;90.66;99633.22;106888;1275;24142;-45
2024/04/01 11:31:33;;;;;;;;;;;;;;;11.83;90.51;99638.17;106871;1275;25337;-47
2024/04/01 11:34:03;;;;;;;;;;;;;;;11.83;90.37;99641.92;106831;1275;25370;-45
2024/04/01 11:36:40;;;;;;;;;;;;;;;11.82;90.36;99647.27;106802;1275;25266;-46
2024/04/01 11:39:12;;;;;;;;;;;;;;;11.80;89.69;99643.58;106794;1275;24324;-48
2024/04/01 11:41:41;;;;;;;;;;;;;;;11.81;89.75;99639.91;106809;1275;22528;-46
2024/04/01 11:44:08;;;;;;;;;;;;;;;11.82;89.55;99642.89;106872;1275;24167;-47
2024/04/01 11:46:34;;;;;;;;;;;;;;;11.79;88.38;99649.11;107089;1275;22494;-48
2024/04/01 11:49:02;;;;;;;;;;;;;;;11.78;88.28;99656.82;106980;1275;25369;-47
2024/04/01 11:51:32;;;;;;;;;;;;;;;11.77;88.54;99661.35;107099;1275;22763;-51
2024/04/01 11:53:59;;;;;;;;;;;;;;;11.79;88.53;99659.73;106933;1275;22744;-50
2024/04/01 11:56:38;;;;;;;;;;;;;;;11.83;88.80;99663.85;106828;1275;22495;-45
2024/04/01 11:59:06;;;;;;;;;;;;;;;11.88;88.79;99664.02;106932;1275;24261;-44
2024/04/01 12:01:36;;;;;;;;;;;;;;;11.93;88.79;99668.80;107042;1272;22455;-47
2024/04/01 12:04:17;;;;;;;;;;;;;;;11.98;88.40;99674.20;106889;1275;22887;-53
2024/04/01 12:06:44;;;;;;;;;;;;;;;12.03;88.16;99678.73;106966;1275;22541;-52
2024/04/01 12:09:12;;;;;;;;;;;;;;;12.09;87.59;99680.77;106978;1275;25480;-54
2024/04/01 12:11:45;;;;;;;;;;;;;;;12.13;87.59;99683.94;106941;1275;23114;-53
2024/04/01 12:14:14;;;;;;;;;;;;;;;12.18;87.22;99685.30;106880;1275;22454;-52
2024/04/01 12:16:45;;;;;;;;;;;;;;;12.23;86.54;99687.24;106864;1270;22805;-52
2024/04/01 12:19:13;;;;;;;;;;;;;;;12.31;86.10;99691.16;106834;1275;25095;-53
2024/04/01 12:21:43;;;;;;;;;;;;;;;12.41;85.35;99696.91;106852;1275;22621;-50
2024/04/01 12:24:10;;;;;;;;;;;;;;;12.50;85.23;99693.52;106822;1275;24135;-52
2024/04/01 12:26:37;;;;;;;;;;;;;;;12.61;85.35;99693.84;106814;1275;22518;-50
2024/04/01 12:29:04;;;;;;;;;;;;;;;12.77;84.72;99693.23;106807;1275;22739;-54
2024/04/01 12:31:33;;;;;;;;;;;;;;;12.92;84.32;99691.44;106788;1275;22794;-54
2024/04/01 12:34:00;;;;;;;;;;;;;;;13.08;83.84;99697.34;106809;1275;24167;-50
2024/04/01 12:36:26;;;;;;;;;;;;;;;13.21;83.65;99700.65;106784;1275;22517;-54
2024/04/01 12:38:54;;;;;;;;;;;;;;;13.30;82.73;99697.55;106814;1275;23179;-51
2024/04/01 12:41:23;;;;;;;;;;;;;;;13.41;82.16;99700.44;106781;1275;24212;-51
2024/04/01 12:43:52;;;;;;;;;;;;;;;13.48;81.45;99700.88;106726;1275;22438;-53
2024/04/01 12:46:21;;;;;;;;;;;;;;;13.56;81.16;99701.27;106754;1275;25169;-52